sensor_id;sensor_type;location;lat;lon;timestamp;P1;durP1;ratioP1;P2;durP2;ratioP2
10341;SDS011;5216;54.602;18.356;2022-10-31T00:00:57;15.57;;;12.00;;
10341;SDS011;5216;54.602;18.356;2022-10-31T00:03:24;14.43;;;10.07;;
10341;SDS011;5216;54.602;18.356;2022-10-31T00:05:52;9.50;;;7.50;;
10341;SDS011;5216;54.602;18.356;2022-10-31T00:08:19;13.80;;;9.73;;
10341;SDS011;5216;54.602;18.356;2022-10-31T00:10:45;12.70;;;8.27;;
10341;SDS011;5216;54.602;18.356;2022-10-31T00:13:13;8.67;;;6.17;;
10341;SDS011;5216;54.602;18.356;2022-10-31T00:15:40;10.40;;;7.93;;
10341;SDS011;5216;54.602;18.356;2022-10-31T00:18:07;13.27;;;9.20;;
10341;SDS011;5216;54.602;18.356;2022-10-31T00:20:34;8.97;;;7.00;;
10341;SDS011;5216;54.602;18.356;2022-10-31T00:23:01;10.93;;;7.43;;
10341;SDS011;5216;54.602;18.356;2022-10-31T00:25:29;10.67;;;7.37;;
10341;SDS011;5216;54.602;18.356;2022-10-31T00:27:55;12.63;;;8.43;;
10341;SDS011;5216;54.602;18.356;2022-10-31T00:30:22;14.97;;;9.47;;
10341;SDS011;5216;54.602;18.356;2022-10-31T00:32:49;12.93;;;9.33;;
10341;SDS011;5216;54.602;18.356;2022-10-31T00:35:15;10.73;;;8.43;;
10341;SDS011;5216;54.602;18.356;2022-10-31T00:37:42;10.77;;;7.73;;
10341;SDS011;5216;54.602;18.356;2022-10-31T00:40:09;12.83;;;8.80;;
10341;SDS011;5216;54.602;18.356;2022-10-31T00:42:36;10.40;;;7.93;;
10341;SDS011;5216;54.602;18.356;2022-10-31T00:45:02;11.23;;;8.00;;
10341;SDS011;5216;54.602;18.356;2022-10-31T00:47:29;10.97;;;7.43;;
10341;SDS011;5216;54.602;18.356;2022-10-31T00:49:55;8.43;;;6.73;;
10341;SDS011;5216;54.602;18.356;2022-10-31T00:52:22;10.17;;;7.37;;
10341;SDS011;5216;54.602;18.356;2022-10-31T00:54:48;12.03;;;6.90;;
10341;SDS011;5216;54.602;18.356;2022-10-31T00:57:15;8.53;;;6.07;;
10341;SDS011;5216;54.602;18.356;2022-10-31T00:59:41;7.77;;;5.50;;
10341;SDS011;5216;54.602;18.356;2022-10-31T01:02:08;7.10;;;5.33;;
10341;SDS011;5216;54.602;18.356;2022-10-31T01:04:35;9.37;;;6.17;;
10341;SDS011;5216;54.602;18.356;2022-10-31T01:07:01;11.40;;;8.30;;
10341;SDS011;5216;54.602;18.356;2022-10-31T01:09:28;11.90;;;7.70;;
10341;SDS011;5216;54.602;18.356;2022-10-31T01:11:54;12.23;;;7.93;;
10341;SDS011;5216;54.602;18.356;2022-10-31T01:14:21;10.40;;;8.50;;
10341;SDS011;5216;54.602;18.356;2022-10-31T01:16:47;12.60;;;9.30;;
10341;SDS011;5216;54.602;18.356;2022-10-31T01:19:14;12.57;;;8.83;;
10341;SDS011;5216;54.602;18.356;2022-10-31T01:21:41;11.17;;;8.70;;
10341;SDS011;5216;54.602;18.356;2022-10-31T01:24:07;12.60;;;9.57;;
10341;SDS011;5216;54.602;18.356;2022-10-31T01:26:34;11.13;;;9.27;;
10341;SDS011;5216;54.602;18.356;2022-10-31T01:29:03;12.97;;;9.87;;
10341;SDS011;5216;54.602;18.356;2022-10-31T01:31:31;14.80;;;10.10;;
10341;SDS011;5216;54.602;18.356;2022-10-31T01:33:58;17.20;;;10.30;;
10341;SDS011;5216;54.602;18.356;2022-10-31T01:36:29;14.53;;;9.70;;
10341;SDS011;5216;54.602;18.356;2022-10-31T01:38:57;13.00;;;10.17;;
10341;SDS011;5216;54.602;18.356;2022-10-31T01:41:25;11.73;;;9.30;;
10341;SDS011;5216;54.602;18.356;2022-10-31T01:43:54;15.20;;;9.53;;
10341;SDS011;5216;54.602;18.356;2022-10-31T01:46:25;12.83;;;9.40;;
10341;SDS011;5216;54.602;18.356;2022-10-31T01:48:54;11.70;;;8.90;;
10341;SDS011;5216;54.602;18.356;2022-10-31T01:51:22;12.53;;;9.30;;
10341;SDS011;5216;54.602;18.356;2022-10-31T01:53:50;11.70;;;9.33;;
10341;SDS011;5216;54.602;18.356;2022-10-31T01:56:17;11.10;;;8.37;;
10341;SDS011;5216;54.602;18.356;2022-10-31T01:58:45;13.50;;;8.43;;
10341;SDS011;5216;54.602;18.356;2022-10-31T02:01:12;11.17;;;8.43;;
10341;SDS011;5216;54.602;18.356;2022-10-31T02:03:39;10.00;;;7.97;;
10341;SDS011;5216;54.602;18.356;2022-10-31T02:06:06;9.97;;;6.80;;
10341;SDS011;5216;54.602;18.356;2022-10-31T02:08:36;10.00;;;6.73;;
10341;SDS011;5216;54.602;18.356;2022-10-31T02:11:04;9.63;;;7.47;;
10341;SDS011;5216;54.602;18.356;2022-10-31T02:13:31;9.40;;;7.50;;
10341;SDS011;5216;54.602;18.356;2022-10-31T02:16:00;12.67;;;8.27;;
10341;SDS011;5216;54.602;18.356;2022-10-31T02:18:27;12.97;;;9.57;;
10341;SDS011;5216;54.602;18.356;2022-10-31T02:28:54;13.93;;;10.10;;
10341;SDS011;5216;54.602;18.356;2022-10-31T02:31:43;13.43;;;10.50;;
10341;SDS011;5216;54.602;18.356;2022-10-31T02:34:18;11.50;;;8.63;;
10341;SDS011;5216;54.602;18.356;2022-10-31T02:39:29;13.90;;;8.50;;
10341;SDS011;5216;54.602;18.356;2022-10-31T02:44:58;10.83;;;8.37;;
10341;SDS011;5216;54.602;18.356;2022-10-31T02:47:29;10.87;;;8.23;;
10341;SDS011;5216;54.602;18.356;2022-10-31T02:52:34;9.43;;;7.43;;
10341;SDS011;5216;54.602;18.356;2022-10-31T02:55:42;10.37;;;7.70;;
10341;SDS011;5216;54.602;18.356;2022-10-31T02:58:07;8.80;;;7.27;;
10341;SDS011;5216;54.602;18.356;2022-10-31T03:00:37;9.27;;;7.20;;
10341;SDS011;5216;54.602;18.356;2022-10-31T03:03:18;10.83;;;7.40;;
10341;SDS011;5216;54.602;18.356;2022-10-31T03:08:18;11.87;;;8.10;;
10341;SDS011;5216;54.602;18.356;2022-10-31T03:10:52;9.73;;;7.87;;
10341;SDS011;5216;54.602;18.356;2022-10-31T03:15:50;10.57;;;8.20;;
10341;SDS011;5216;54.602;18.356;2022-10-31T03:18:29;11.07;;;8.80;;
10341;SDS011;5216;54.602;18.356;2022-10-31T03:21:00;11.90;;;8.53;;
10341;SDS011;5216;54.602;18.356;2022-10-31T03:23:28;11.13;;;8.63;;
10341;SDS011;5216;54.602;18.356;2022-10-31T03:25:56;13.90;;;8.60;;
10341;SDS011;5216;54.602;18.356;2022-10-31T03:28:24;12.10;;;8.60;;
10341;SDS011;5216;54.602;18.356;2022-10-31T03:30:53;13.37;;;9.47;;
10341;SDS011;5216;54.602;18.356;2022-10-31T03:33:27;14.07;;;9.20;;
10341;SDS011;5216;54.602;18.356;2022-10-31T03:35:55;17.63;;;9.60;;
10341;SDS011;5216;54.602;18.356;2022-10-31T03:38:23;19.77;;;10.43;;
10341;SDS011;5216;54.602;18.356;2022-10-31T03:40:50;19.90;;;10.93;;
10341;SDS011;5216;54.602;18.356;2022-10-31T03:43:23;25.13;;;11.53;;
10341;SDS011;5216;54.602;18.356;2022-10-31T03:45:50;19.40;;;10.93;;
10341;SDS011;5216;54.602;18.356;2022-10-31T03:48:17;21.40;;;11.37;;
10341;SDS011;5216;54.602;18.356;2022-10-31T03:53:40;21.00;;;10.77;;
10341;SDS011;5216;54.602;18.356;2022-10-31T03:56:12;25.33;;;10.60;;
10341;SDS011;5216;54.602;18.356;2022-10-31T03:58:45;21.43;;;11.60;;
10341;SDS011;5216;54.602;18.356;2022-10-31T04:01:15;21.93;;;10.97;;
10341;SDS011;5216;54.602;18.356;2022-10-31T04:03:43;21.37;;;10.67;;
10341;SDS011;5216;54.602;18.356;2022-10-31T04:06:10;21.00;;;11.47;;
10341;SDS011;5216;54.602;18.356;2022-10-31T04:08:39;22.93;;;11.60;;
10341;SDS011;5216;54.602;18.356;2022-10-31T04:11:07;20.80;;;11.30;;
10341;SDS011;5216;54.602;18.356;2022-10-31T04:13:35;20.90;;;11.70;;
10341;SDS011;5216;54.602;18.356;2022-10-31T04:16:04;23.80;;;12.50;;
10341;SDS011;5216;54.602;18.356;2022-10-31T04:18:31;22.83;;;12.13;;
10341;SDS011;5216;54.602;18.356;2022-10-31T04:21:01;20.37;;;11.60;;
10341;SDS011;5216;54.602;18.356;2022-10-31T04:23:28;23.20;;;12.77;;
10341;SDS011;5216;54.602;18.356;2022-10-31T04:25:54;20.93;;;12.73;;
10341;SDS011;5216;54.602;18.356;2022-10-31T04:28:21;25.83;;;13.87;;
10341;SDS011;5216;54.602;18.356;2022-10-31T04:30:48;22.77;;;12.73;;
10341;SDS011;5216;54.602;18.356;2022-10-31T04:33:15;24.93;;;13.13;;
10341;SDS011;5216;54.602;18.356;2022-10-31T04:35:41;19.60;;;12.57;;
10341;SDS011;5216;54.602;18.356;2022-10-31T04:38:08;24.03;;;13.57;;
10341;SDS011;5216;54.602;18.356;2022-10-31T04:40:34;28.33;;;14.50;;
10341;SDS011;5216;54.602;18.356;2022-10-31T04:43:01;21.80;;;13.40;;
10341;SDS011;5216;54.602;18.356;2022-10-31T04:45:28;27.40;;;14.43;;
10341;SDS011;5216;54.602;18.356;2022-10-31T04:47:54;26.40;;;14.33;;
10341;SDS011;5216;54.602;18.356;2022-10-31T04:50:21;23.63;;;14.07;;
10341;SDS011;5216;54.602;18.356;2022-10-31T04:52:47;25.30;;;14.37;;
10341;SDS011;5216;54.602;18.356;2022-10-31T04:55:14;22.27;;;14.40;;
10341;SDS011;5216;54.602;18.356;2022-10-31T04:57:44;23.53;;;14.40;;
10341;SDS011;5216;54.602;18.356;2022-10-31T05:00:11;24.43;;;13.77;;
10341;SDS011;5216;54.602;18.356;2022-10-31T05:02:48;24.57;;;14.57;;
10341;SDS011;5216;54.602;18.356;2022-10-31T05:05:16;25.37;;;14.33;;
10341;SDS011;5216;54.602;18.356;2022-10-31T05:07:43;28.93;;;15.37;;
10341;SDS011;5216;54.602;18.356;2022-10-31T05:10:11;21.97;;;14.07;;
10341;SDS011;5216;54.602;18.356;2022-10-31T05:12:37;23.13;;;14.80;;
10341;SDS011;5216;54.602;18.356;2022-10-31T05:15:04;25.67;;;15.20;;
10341;SDS011;5216;54.602;18.356;2022-10-31T05:17:31;28.90;;;16.90;;
10341;SDS011;5216;54.602;18.356;2022-10-31T05:19:58;34.97;;;22.77;;
10341;SDS011;5216;54.602;18.356;2022-10-31T05:22:24;40.37;;;25.70;;
10341;SDS011;5216;54.602;18.356;2022-10-31T05:24:50;30.00;;;19.60;;
10341;SDS011;5216;54.602;18.356;2022-10-31T05:27:17;31.80;;;17.60;;
10341;SDS011;5216;54.602;18.356;2022-10-31T05:29:43;28.47;;;17.13;;
10341;SDS011;5216;54.602;18.356;2022-10-31T05:32:10;29.33;;;16.03;;
10341;SDS011;5216;54.602;18.356;2022-10-31T05:34:36;29.93;;;17.33;;
10341;SDS011;5216;54.602;18.356;2022-10-31T05:37:03;30.53;;;17.03;;
10341;SDS011;5216;54.602;18.356;2022-10-31T05:39:29;31.53;;;17.70;;
10341;SDS011;5216;54.602;18.356;2022-10-31T05:41:56;34.70;;;21.27;;
10341;SDS011;5216;54.602;18.356;2022-10-31T05:44:22;49.03;;;29.67;;
10341;SDS011;5216;54.602;18.356;2022-10-31T05:46:49;39.93;;;22.90;;
10341;SDS011;5216;54.602;18.356;2022-10-31T05:49:15;41.10;;;22.40;;
10341;SDS011;5216;54.602;18.356;2022-10-31T05:51:43;39.07;;;20.90;;
10341;SDS011;5216;54.602;18.356;2022-10-31T05:54:10;39.23;;;21.40;;
10341;SDS011;5216;54.602;18.356;2022-10-31T05:56:41;39.93;;;22.13;;
10341;SDS011;5216;54.602;18.356;2022-10-31T05:59:07;40.03;;;21.60;;
10341;SDS011;5216;54.602;18.356;2022-10-31T06:01:34;42.10;;;21.73;;
10341;SDS011;5216;54.602;18.356;2022-10-31T06:04:00;45.57;;;24.50;;
10341;SDS011;5216;54.602;18.356;2022-10-31T06:06:27;49.83;;;28.50;;
10341;SDS011;5216;54.602;18.356;2022-10-31T06:08:53;51.17;;;29.17;;
10341;SDS011;5216;54.602;18.356;2022-10-31T06:11:19;49.47;;;28.07;;
10341;SDS011;5216;54.602;18.356;2022-10-31T06:13:46;49.87;;;27.00;;
10341;SDS011;5216;54.602;18.356;2022-10-31T06:16:12;50.93;;;28.03;;
10341;SDS011;5216;54.602;18.356;2022-10-31T06:18:39;77.67;;;48.43;;
10341;SDS011;5216;54.602;18.356;2022-10-31T06:21:06;102.33;;;68.77;;
10341;SDS011;5216;54.602;18.356;2022-10-31T06:23:32;59.77;;;33.27;;
10341;SDS011;5216;54.602;18.356;2022-10-31T06:25:58;46.03;;;26.80;;
10341;SDS011;5216;54.602;18.356;2022-10-31T06:28:25;51.57;;;26.57;;
10341;SDS011;5216;54.602;18.356;2022-10-31T06:30:52;50.50;;;26.13;;
10341;SDS011;5216;54.602;18.356;2022-10-31T06:33:18;51.93;;;26.83;;
10341;SDS011;5216;54.602;18.356;2022-10-31T06:35:47;47.17;;;25.97;;
10341;SDS011;5216;54.602;18.356;2022-10-31T06:38:14;47.60;;;26.57;;
10341;SDS011;5216;54.602;18.356;2022-10-31T06:40:40;47.17;;;24.40;;
10341;SDS011;5216;54.602;18.356;2022-10-31T06:43:07;52.10;;;25.23;;
10341;SDS011;5216;54.602;18.356;2022-10-31T06:45:34;57.53;;;27.30;;
10341;SDS011;5216;54.602;18.356;2022-10-31T06:48:00;53.33;;;25.93;;
10341;SDS011;5216;54.602;18.356;2022-10-31T06:50:43;52.37;;;25.73;;
10341;SDS011;5216;54.602;18.356;2022-10-31T06:53:09;49.87;;;24.63;;
10341;SDS011;5216;54.602;18.356;2022-10-31T06:55:36;43.30;;;24.80;;
10341;SDS011;5216;54.602;18.356;2022-10-31T06:58:02;45.20;;;24.63;;
10341;SDS011;5216;54.602;18.356;2022-10-31T07:00:29;46.97;;;24.77;;
10341;SDS011;5216;54.602;18.356;2022-10-31T07:02:56;48.73;;;25.07;;
10341;SDS011;5216;54.602;18.356;2022-10-31T07:05:23;43.93;;;23.27;;
10341;SDS011;5216;54.602;18.356;2022-10-31T07:07:56;38.33;;;23.10;;
10341;SDS011;5216;54.602;18.356;2022-10-31T07:10:24;35.60;;;21.93;;
10341;SDS011;5216;54.602;18.356;2022-10-31T07:12:59;42.90;;;21.87;;
10341;SDS011;5216;54.602;18.356;2022-10-31T07:15:27;36.83;;;21.23;;
10341;SDS011;5216;54.602;18.356;2022-10-31T07:17:54;35.30;;;22.00;;
10341;SDS011;5216;54.602;18.356;2022-10-31T07:20:20;36.23;;;22.23;;
10341;SDS011;5216;54.602;18.356;2022-10-31T07:22:47;31.37;;;20.60;;
10341;SDS011;5216;54.602;18.356;2022-10-31T07:25:16;33.50;;;21.37;;
10341;SDS011;5216;54.602;18.356;2022-10-31T07:27:42;34.83;;;21.57;;
10341;SDS011;5216;54.602;18.356;2022-10-31T07:30:10;35.50;;;21.00;;
10341;SDS011;5216;54.602;18.356;2022-10-31T07:32:44;31.53;;;21.33;;
10341;SDS011;5216;54.602;18.356;2022-10-31T07:35:12;32.07;;;21.43;;
10341;SDS011;5216;54.602;18.356;2022-10-31T07:37:39;34.53;;;21.17;;
10341;SDS011;5216;54.602;18.356;2022-10-31T07:40:06;33.87;;;20.90;;
10341;SDS011;5216;54.602;18.356;2022-10-31T07:42:39;46.77;;;30.93;;
10341;SDS011;5216;54.602;18.356;2022-10-31T07:45:06;40.10;;;24.77;;
10341;SDS011;5216;54.602;18.356;2022-10-31T07:47:44;32.60;;;22.97;;
10341;SDS011;5216;54.602;18.356;2022-10-31T07:50:11;34.93;;;21.30;;
10341;SDS011;5216;54.602;18.356;2022-10-31T07:52:38;30.20;;;20.10;;
10341;SDS011;5216;54.602;18.356;2022-10-31T07:55:05;31.03;;;19.80;;
10341;SDS011;5216;54.602;18.356;2022-10-31T07:57:31;31.60;;;21.40;;
10341;SDS011;5216;54.602;18.356;2022-10-31T08:00:00;34.03;;;21.47;;
10341;SDS011;5216;54.602;18.356;2022-10-31T08:02:26;35.33;;;21.97;;
10341;SDS011;5216;54.602;18.356;2022-10-31T08:04:53;31.13;;;20.83;;
10341;SDS011;5216;54.602;18.356;2022-10-31T08:07:26;32.90;;;21.03;;
10341;SDS011;5216;54.602;18.356;2022-10-31T08:09:53;31.07;;;20.20;;
10341;SDS011;5216;54.602;18.356;2022-10-31T08:12:19;28.10;;;20.07;;
10341;SDS011;5216;54.602;18.356;2022-10-31T08:14:46;33.43;;;22.27;;
10341;SDS011;5216;54.602;18.356;2022-10-31T08:17:12;33.50;;;21.73;;
10341;SDS011;5216;54.602;18.356;2022-10-31T08:19:39;31.93;;;21.37;;
10341;SDS011;5216;54.602;18.356;2022-10-31T08:22:05;34.27;;;21.97;;
10341;SDS011;5216;54.602;18.356;2022-10-31T08:24:32;35.20;;;21.80;;
10341;SDS011;5216;54.602;18.356;2022-10-31T08:26:59;33.13;;;21.13;;
10341;SDS011;5216;54.602;18.356;2022-10-31T08:29:25;30.43;;;19.37;;
10341;SDS011;5216;54.602;18.356;2022-10-31T08:31:52;29.30;;;20.80;;
10341;SDS011;5216;54.602;18.356;2022-10-31T08:34:18;28.87;;;20.03;;
10341;SDS011;5216;54.602;18.356;2022-10-31T08:36:45;30.27;;;20.40;;
10341;SDS011;5216;54.602;18.356;2022-10-31T08:39:12;28.27;;;19.20;;
10341;SDS011;5216;54.602;18.356;2022-10-31T08:41:38;29.83;;;19.27;;
10341;SDS011;5216;54.602;18.356;2022-10-31T08:44:05;25.93;;;17.37;;
10341;SDS011;5216;54.602;18.356;2022-10-31T08:46:32;27.43;;;18.60;;
10341;SDS011;5216;54.602;18.356;2022-10-31T08:48:59;25.43;;;18.60;;
10341;SDS011;5216;54.602;18.356;2022-10-31T08:51:25;23.20;;;17.63;;
10341;SDS011;5216;54.602;18.356;2022-10-31T08:53:52;25.63;;;18.10;;
10341;SDS011;5216;54.602;18.356;2022-10-31T08:56:18;26.43;;;17.80;;
10341;SDS011;5216;54.602;18.356;2022-10-31T08:58:45;24.37;;;16.80;;
10341;SDS011;5216;54.602;18.356;2022-10-31T09:01:12;26.33;;;17.40;;
10341;SDS011;5216;54.602;18.356;2022-10-31T09:03:39;26.60;;;17.30;;
10341;SDS011;5216;54.602;18.356;2022-10-31T09:06:05;26.07;;;18.47;;
10341;SDS011;5216;54.602;18.356;2022-10-31T09:08:35;26.00;;;18.57;;
10341;SDS011;5216;54.602;18.356;2022-10-31T09:11:02;26.37;;;18.23;;
10341;SDS011;5216;54.602;18.356;2022-10-31T09:13:29;21.40;;;17.17;;
10341;SDS011;5216;54.602;18.356;2022-10-31T09:15:56;31.87;;;19.63;;
10341;SDS011;5216;54.602;18.356;2022-10-31T09:18:23;27.40;;;19.50;;
10341;SDS011;5216;54.602;18.356;2022-10-31T09:20:50;26.73;;;18.77;;
10341;SDS011;5216;54.602;18.356;2022-10-31T09:23:18;25.77;;;18.83;;
10341;SDS011;5216;54.602;18.356;2022-10-31T09:25:45;27.50;;;19.57;;
10341;SDS011;5216;54.602;18.356;2022-10-31T09:28:17;25.30;;;18.33;;
10341;SDS011;5216;54.602;18.356;2022-10-31T09:30:46;25.47;;;18.40;;
10341;SDS011;5216;54.602;18.356;2022-10-31T09:33:13;24.03;;;19.00;;
10341;SDS011;5216;54.602;18.356;2022-10-31T09:35:40;27.00;;;18.37;;
10341;SDS011;5216;54.602;18.356;2022-10-31T09:38:08;27.43;;;19.33;;
10341;SDS011;5216;54.602;18.356;2022-10-31T09:40:36;29.97;;;20.90;;
10341;SDS011;5216;54.602;18.356;2022-10-31T09:43:07;27.47;;;20.63;;
10341;SDS011;5216;54.602;18.356;2022-10-31T09:45:36;28.77;;;20.57;;
10341;SDS011;5216;54.602;18.356;2022-10-31T09:48:10;28.13;;;20.87;;
10341;SDS011;5216;54.602;18.356;2022-10-31T09:55:58;25.07;;;19.33;;
10341;SDS011;5216;54.602;18.356;2022-10-31T09:58:28;26.10;;;19.33;;
10341;SDS011;5216;54.602;18.356;2022-10-31T10:01:00;27.50;;;19.17;;
10341;SDS011;5216;54.602;18.356;2022-10-31T10:03:37;26.10;;;19.37;;
10341;SDS011;5216;54.602;18.356;2022-10-31T10:06:15;23.57;;;18.40;;
10341;SDS011;5216;54.602;18.356;2022-10-31T10:08:43;25.87;;;17.73;;
10341;SDS011;5216;54.602;18.356;2022-10-31T10:14:14;24.80;;;19.07;;
10341;SDS011;5216;54.602;18.356;2022-10-31T10:16:41;22.77;;;17.97;;
10341;SDS011;5216;54.602;18.356;2022-10-31T10:21:51;25.60;;;19.60;;
10341;SDS011;5216;54.602;18.356;2022-10-31T10:24:35;26.63;;;20.33;;
10341;SDS011;5216;54.602;18.356;2022-10-31T10:27:09;25.10;;;20.03;;
10341;SDS011;5216;54.602;18.356;2022-10-31T10:29:39;27.40;;;19.60;;
10341;SDS011;5216;54.602;18.356;2022-10-31T10:32:12;29.17;;;21.37;;
10341;SDS011;5216;54.602;18.356;2022-10-31T10:34:41;32.37;;;20.67;;
10341;SDS011;5216;54.602;18.356;2022-10-31T10:39:41;26.80;;;20.43;;
10341;SDS011;5216;54.602;18.356;2022-10-31T10:42:10;27.67;;;20.80;;
10341;SDS011;5216;54.602;18.356;2022-10-31T10:44:56;28.70;;;22.00;;
10341;SDS011;5216;54.602;18.356;2022-10-31T10:47:42;30.40;;;21.77;;
10341;SDS011;5216;54.602;18.356;2022-10-31T10:50:17;30.53;;;22.50;;
10341;SDS011;5216;54.602;18.356;2022-10-31T10:55:20;27.87;;;20.80;;
10341;SDS011;5216;54.602;18.356;2022-10-31T10:57:52;29.00;;;21.43;;
10341;SDS011;5216;54.602;18.356;2022-10-31T11:00:25;29.20;;;21.47;;
10341;SDS011;5216;54.602;18.356;2022-10-31T11:02:52;26.13;;;20.87;;
10341;SDS011;5216;54.602;18.356;2022-10-31T11:05:24;26.33;;;20.67;;
10341;SDS011;5216;54.602;18.356;2022-10-31T11:07:51;27.53;;;20.47;;
10341;SDS011;5216;54.602;18.356;2022-10-31T11:10:21;26.70;;;21.47;;
10341;SDS011;5216;54.602;18.356;2022-10-31T11:15:36;28.97;;;21.53;;
10341;SDS011;5216;54.602;18.356;2022-10-31T11:18:03;34.67;;;25.87;;
10341;SDS011;5216;54.602;18.356;2022-10-31T11:20:31;33.23;;;27.83;;
10341;SDS011;5216;54.602;18.356;2022-10-31T11:23:18;35.10;;;27.83;;
10341;SDS011;5216;54.602;18.356;2022-10-31T11:25:52;37.73;;;28.10;;
10341;SDS011;5216;54.602;18.356;2022-10-31T11:28:20;31.07;;;23.33;;
10341;SDS011;5216;54.602;18.356;2022-10-31T11:30:47;28.53;;;21.40;;
10341;SDS011;5216;54.602;18.356;2022-10-31T11:33:23;26.30;;;21.27;;
10341;SDS011;5216;54.602;18.356;2022-10-31T11:35:51;27.43;;;20.47;;
10341;SDS011;5216;54.602;18.356;2022-10-31T11:38:24;25.40;;;20.47;;
10341;SDS011;5216;54.602;18.356;2022-10-31T11:40:51;26.73;;;21.53;;
10341;SDS011;5216;54.602;18.356;2022-10-31T11:43:19;24.63;;;20.80;;
10341;SDS011;5216;54.602;18.356;2022-10-31T11:45:46;24.17;;;18.87;;
10341;SDS011;5216;54.602;18.356;2022-10-31T11:48:16;29.40;;;23.17;;
10341;SDS011;5216;54.602;18.356;2022-10-31T11:50:47;30.60;;;26.10;;
10341;SDS011;5216;54.602;18.356;2022-10-31T11:53:16;26.03;;;21.60;;
10341;SDS011;5216;54.602;18.356;2022-10-31T11:55:44;24.93;;;20.07;;
10341;SDS011;5216;54.602;18.356;2022-10-31T11:58:24;23.57;;;19.33;;
10341;SDS011;5216;54.602;18.356;2022-10-31T12:00:52;23.40;;;19.40;;
10341;SDS011;5216;54.602;18.356;2022-10-31T12:05:57;23.57;;;20.13;;
10341;SDS011;5216;54.602;18.356;2022-10-31T12:08:26;24.90;;;19.43;;
10341;SDS011;5216;54.602;18.356;2022-10-31T12:13:32;21.80;;;18.37;;
10341;SDS011;5216;54.602;18.356;2022-10-31T12:16:00;22.83;;;19.60;;
10341;SDS011;5216;54.602;18.356;2022-10-31T12:26:38;25.43;;;19.83;;
10341;SDS011;5216;54.602;18.356;2022-10-31T12:29:21;25.33;;;19.43;;
10341;SDS011;5216;54.602;18.356;2022-10-31T12:39:59;21.73;;;18.77;;
10341;SDS011;5216;54.602;18.356;2022-10-31T12:47:58;20.23;;;17.07;;
10341;SDS011;5216;54.602;18.356;2022-10-31T12:53:21;21.40;;;17.53;;
10341;SDS011;5216;54.602;18.356;2022-10-31T13:01:38;23.17;;;19.27;;
10341;SDS011;5216;54.602;18.356;2022-10-31T13:04:12;20.13;;;17.07;;
10341;SDS011;5216;54.602;18.356;2022-10-31T13:06:42;19.00;;;16.40;;
10341;SDS011;5216;54.602;18.356;2022-10-31T13:09:11;19.70;;;17.30;;
10341;SDS011;5216;54.602;18.356;2022-10-31T13:11:43;18.77;;;16.27;;
10341;SDS011;5216;54.602;18.356;2022-10-31T13:14:14;20.37;;;16.13;;
10341;SDS011;5216;54.602;18.356;2022-10-31T13:16:44;20.27;;;17.63;;
10341;SDS011;5216;54.602;18.356;2022-10-31T13:19:19;22.43;;;17.33;;
10341;SDS011;5216;54.602;18.356;2022-10-31T13:21:53;19.60;;;16.63;;
10341;SDS011;5216;54.602;18.356;2022-10-31T13:24:23;18.93;;;16.97;;
10341;SDS011;5216;54.602;18.356;2022-10-31T13:26:53;18.47;;;16.57;;
10341;SDS011;5216;54.602;18.356;2022-10-31T13:29:25;20.53;;;16.90;;
10341;SDS011;5216;54.602;18.356;2022-10-31T13:31:58;19.23;;;16.70;;
10341;SDS011;5216;54.602;18.356;2022-10-31T13:42:02;18.87;;;16.80;;
10341;SDS011;5216;54.602;18.356;2022-10-31T13:44:34;18.53;;;15.93;;
10341;SDS011;5216;54.602;18.356;2022-10-31T13:47:26;18.47;;;16.00;;
10341;SDS011;5216;54.602;18.356;2022-10-31T13:50:06;18.97;;;15.83;;
10341;SDS011;5216;54.602;18.356;2022-10-31T13:52:45;17.97;;;15.97;;
10341;SDS011;5216;54.602;18.356;2022-10-31T13:57:59;16.83;;;15.03;;
10341;SDS011;5216;54.602;18.356;2022-10-31T14:00:26;25.53;;;20.97;;
10341;SDS011;5216;54.602;18.356;2022-10-31T14:02:53;20.40;;;17.17;;
10341;SDS011;5216;54.602;18.356;2022-10-31T14:05:23;17.83;;;15.63;;
10341;SDS011;5216;54.602;18.356;2022-10-31T14:07:51;19.33;;;15.53;;
10341;SDS011;5216;54.602;18.356;2022-10-31T14:10:22;17.83;;;15.53;;
10341;SDS011;5216;54.602;18.356;2022-10-31T14:12:50;18.57;;;16.10;;
10341;SDS011;5216;54.602;18.356;2022-10-31T14:15:24;19.27;;;14.77;;
10341;SDS011;5216;54.602;18.356;2022-10-31T14:17:55;17.40;;;15.60;;
10341;SDS011;5216;54.602;18.356;2022-10-31T14:22:55;19.20;;;16.20;;
10341;SDS011;5216;54.602;18.356;2022-10-31T14:27:51;19.77;;;15.70;;
10341;SDS011;5216;54.602;18.356;2022-10-31T14:30:19;19.17;;;14.93;;
10341;SDS011;5216;54.602;18.356;2022-10-31T14:32:49;18.77;;;16.07;;
10341;SDS011;5216;54.602;18.356;2022-10-31T14:35:17;18.97;;;15.63;;
10341;SDS011;5216;54.602;18.356;2022-10-31T14:50:52;14.70;;;13.07;;
10341;SDS011;5216;54.602;18.356;2022-10-31T14:53:30;16.03;;;12.40;;
10341;SDS011;5216;54.602;18.356;2022-10-31T14:55:57;14.13;;;11.40;;
10341;SDS011;5216;54.602;18.356;2022-10-31T14:58:38;22.70;;;19.67;;
10341;SDS011;5216;54.602;18.356;2022-10-31T15:01:06;17.50;;;14.00;;
10341;SDS011;5216;54.602;18.356;2022-10-31T15:03:35;14.77;;;13.17;;
10341;SDS011;5216;54.602;18.356;2022-10-31T15:06:10;15.90;;;13.23;;
10341;SDS011;5216;54.602;18.356;2022-10-31T15:08:38;15.10;;;13.17;;
10341;SDS011;5216;54.602;18.356;2022-10-31T15:11:19;17.90;;;13.67;;
10341;SDS011;5216;54.602;18.356;2022-10-31T15:13:50;16.13;;;14.37;;
10341;SDS011;5216;54.602;18.356;2022-10-31T15:16:21;15.77;;;13.53;;
10341;SDS011;5216;54.602;18.356;2022-10-31T15:18:51;13.90;;;12.27;;
10341;SDS011;5216;54.602;18.356;2022-10-31T15:21:18;15.07;;;12.10;;
10341;SDS011;5216;54.602;18.356;2022-10-31T15:23:46;15.70;;;12.07;;
10341;SDS011;5216;54.602;18.356;2022-10-31T15:26:17;16.67;;;11.20;;
10341;SDS011;5216;54.602;18.356;2022-10-31T15:28:45;12.47;;;11.17;;
10341;SDS011;5216;54.602;18.356;2022-10-31T15:31:12;14.83;;;11.50;;
10341;SDS011;5216;54.602;18.356;2022-10-31T15:33:41;11.40;;;9.83;;
10341;SDS011;5216;54.602;18.356;2022-10-31T15:36:23;15.20;;;10.87;;
10341;SDS011;5216;54.602;18.356;2022-10-31T15:38:56;15.27;;;12.20;;
10341;SDS011;5216;54.602;18.356;2022-10-31T15:41:26;13.50;;;11.50;;
10341;SDS011;5216;54.602;18.356;2022-10-31T15:43:54;14.63;;;11.97;;
10341;SDS011;5216;54.602;18.356;2022-10-31T15:46:21;14.90;;;11.63;;
10341;SDS011;5216;54.602;18.356;2022-10-31T15:48:48;16.17;;;12.53;;
10341;SDS011;5216;54.602;18.356;2022-10-31T15:51:14;15.50;;;11.73;;
10341;SDS011;5216;54.602;18.356;2022-10-31T15:53:45;13.90;;;11.53;;
10341;SDS011;5216;54.602;18.356;2022-10-31T15:56:18;13.53;;;12.13;;
10341;SDS011;5216;54.602;18.356;2022-10-31T15:58:47;15.97;;;11.67;;
10341;SDS011;5216;54.602;18.356;2022-10-31T16:04:01;14.17;;;12.33;;
10341;SDS011;5216;54.602;18.356;2022-10-31T16:06:29;17.83;;;13.07;;
10341;SDS011;5216;54.602;18.356;2022-10-31T16:08:55;15.47;;;13.50;;
10341;SDS011;5216;54.602;18.356;2022-10-31T16:11:35;18.83;;;13.00;;
10341;SDS011;5216;54.602;18.356;2022-10-31T16:16:40;17.90;;;14.17;;
10341;SDS011;5216;54.602;18.356;2022-10-31T16:19:12;20.23;;;16.57;;
10341;SDS011;5216;54.602;18.356;2022-10-31T16:21:40;21.03;;;16.67;;
10341;SDS011;5216;54.602;18.356;2022-10-31T16:26:38;22.13;;;19.60;;
10341;SDS011;5216;54.602;18.356;2022-10-31T16:29:04;24.90;;;19.70;;
10341;SDS011;5216;54.602;18.356;2022-10-31T16:31:37;23.73;;;19.33;;